createdAt,value
2017-04-08T00:00:37.740Z,0
2017-04-08T00:01:18.301Z,0
2017-04-08T00:01:58.811Z,0
2017-04-08T00:02:39.453Z,0
2017-04-08T00:03:19.860Z,0
2017-04-08T00:04:00.398Z,0
2017-04-08T00:04:40.874Z,0
2017-04-08T00:05:21.325Z,0
2017-04-08T00:06:01.872Z,0
2017-04-08T00:06:42.368Z,0
2017-04-08T00:07:22.852Z,0
2017-04-08T00:08:03.375Z,0
2017-04-08T00:08:43.864Z,0
2017-04-08T00:09:24.382Z,0
2017-04-08T00:10:05.018Z,0
2017-04-08T00:10:45.649Z,0
2017-04-08T00:11:26.162Z,0
2017-04-08T00:12:06.682Z,0
2017-04-08T00:12:47.150Z,0
2017-04-08T00:13:27.666Z,0
2017-04-08T00:14:08.178Z,0
2017-04-08T00:14:48.702Z,0
2017-04-08T00:15:29.223Z,0
2017-04-08T00:16:09.791Z,0
2017-04-08T00:16:50.224Z,0
2017-04-08T00:17:30.724Z,0
2017-04-08T00:18:11.194Z,0
2017-04-08T00:18:51.654Z,0
2017-04-08T00:19:32.141Z,0
2017-04-08T00:20:12.702Z,0
2017-04-08T00:20:53.145Z,0
2017-04-08T00:21:33.730Z,0
2017-04-08T00:22:14.222Z,0
2017-04-08T00:22:54.722Z,0
2017-04-08T00:23:35.186Z,0
2017-04-08T00:24:15.658Z,0
2017-04-08T00:24:56.139Z,0
2017-04-08T00:25:36.661Z,0
2017-04-08T00:26:17.139Z,0
2017-04-08T00:26:57.646Z,0
2017-04-08T00:27:38.140Z,0
2017-04-08T00:28:18.702Z,0
2017-04-08T00:28:59.193Z,0
2017-04-08T00:29:39.696Z,0
2017-04-08T00:30:20.155Z,0
2017-04-08T00:31:00.659Z,0
2017-04-08T00:31:41.182Z,0
2017-04-08T00:32:21.664Z,0
2017-04-08T00:33:02.126Z,0
2017-04-08T00:33:42.636Z,0
2017-04-08T00:34:23.105Z,0
2017-04-08T00:35:03.592Z,0
2017-04-08T00:35:44.091Z,0
2017-04-08T00:36:24.608Z,0
2017-04-08T00:37:05.111Z,0
2017-04-08T00:37:45.602Z,0
2017-04-08T00:38:26.052Z,0
2017-04-08T00:39:06.552Z,0
2017-04-08T00:39:47.045Z,0
2017-04-08T00:40:27.544Z,0
2017-04-08T00:41:08.037Z,0
2017-04-08T00:41:48.554Z,0
2017-04-08T00:42:29.013Z,0
2017-04-08T00:43:09.511Z,0
2017-04-08T00:43:50.057Z,0
2017-04-08T00:44:30.486Z,0
2017-04-08T00:45:11.087Z,0
2017-04-08T00:45:51.556Z,0
2017-04-08T00:46:32.010Z,0
2017-04-08T00:47:12.525Z,0
2017-04-08T00:47:53.008Z,0
2017-04-08T00:48:33.473Z,0
2017-04-08T00:49:13.946Z,0
2017-04-08T00:49:54.488Z,0
2017-04-08T00:50:34.947Z,0
2017-04-08T00:51:15.438Z,0
2017-04-08T00:51:55.929Z,0
2017-04-08T00:52:36.431Z,0
2017-04-08T00:53:16.941Z,0
2017-04-08T00:53:57.411Z,0
2017-04-08T00:54:37.872Z,0
2017-04-08T00:55:18.434Z,0
2017-04-08T00:55:58.934Z,0
2017-04-08T00:56:39.417Z,0
2017-04-08T00:57:19.895Z,0
2017-04-08T00:58:00.343Z,0
2017-04-08T00:58:40.848Z,0
2017-04-08T00:59:21.394Z,0
2017-04-08T01:00:01.836Z,0
2017-04-08T01:00:42.323Z,0
2017-04-08T01:01:22.854Z,0
2017-04-08T01:02:03.340Z,0
2017-04-08T01:02:43.843Z,0
2017-04-08T01:03:24.324Z,0
2017-04-08T01:04:04.839Z,0
2017-04-08T01:04:45.298Z,0
2017-04-08T01:05:25.800Z,0
2017-04-08T01:06:06.261Z,0
2017-04-08T01:06:46.748Z,0
2017-04-08T01:07:27.294Z,0
2017-04-08T01:08:07.762Z,0
2017-04-08T01:08:48.299Z,0
2017-04-08T01:09:28.824Z,0
2017-04-08T01:10:09.396Z,0
2017-04-08T01:10:49.841Z,0
2017-04-08T01:11:30.354Z,0
2017-04-08T01:12:10.820Z,0
2017-04-08T01:12:51.380Z,0
2017-04-08T01:13:31.835Z,0
2017-04-08T01:14:12.331Z,0
2017-04-08T01:14:52.802Z,0
2017-04-08T01:15:33.311Z,0
2017-04-08T01:16:13.776Z,0
2017-04-08T01:16:54.291Z,0
2017-04-08T01:17:34.733Z,0
2017-04-08T01:18:15.246Z,0
2017-04-08T01:18:55.734Z,0
2017-04-08T01:19:36.228Z,0
2017-04-08T01:20:16.722Z,0
2017-04-08T01:20:57.268Z,0
2017-04-08T01:21:37.762Z,0
2017-04-08T01:22:18.329Z,0
2017-04-08T01:22:58.793Z,0
2017-04-08T01:23:39.336Z,0
2017-04-08T01:24:19.838Z,0
2017-04-08T01:25:00.329Z,0
2017-04-08T01:25:40.792Z,0
2017-04-08T01:26:21.340Z,0
2017-04-08T01:27:01.789Z,0
2017-04-08T01:27:42.293Z,0
2017-04-08T01:28:22.768Z,0
2017-04-08T01:29:03.295Z,0
2017-04-08T01:29:43.799Z,0
2017-04-08T01:30:24.294Z,0
2017-04-08T01:31:04.791Z,0
2017-04-08T01:31:45.326Z,0
2017-04-08T01:32:25.804Z,0
2017-04-08T01:33:06.306Z,0
2017-04-08T01:33:46.836Z,0
2017-04-08T01:34:27.291Z,0
2017-04-08T01:35:07.794Z,0
2017-04-08T01:35:48.290Z,0
2017-04-08T01:36:28.754Z,0
2017-04-08T01:37:09.253Z,0
2017-04-08T01:37:49.749Z,0
2017-04-08T01:38:30.221Z,0
2017-04-08T01:39:10.712Z,0
2017-04-08T01:39:51.239Z,0
2017-04-08T01:40:31.712Z,0
2017-04-08T01:41:12.207Z,0
2017-04-08T01:41:52.697Z,0
2017-04-08T01:42:33.210Z,0
2017-04-08T01:43:13.670Z,0
2017-04-08T01:43:54.187Z,0
2017-04-08T01:44:34.731Z,0
2017-04-08T01:45:15.157Z,0
2017-04-08T01:45:55.690Z,0
2017-04-08T01:46:36.176Z,0
2017-04-08T01:47:16.722Z,0
2017-04-08T01:47:57.300Z,0
2017-04-08T01:48:37.756Z,0
2017-04-08T01:49:18.371Z,0
2017-04-08T01:49:58.970Z,0
2017-04-08T01:50:39.448Z,0
2017-04-08T01:51:20.011Z,0
2017-04-08T01:52:00.659Z,0
2017-04-08T01:52:41.083Z,0
2017-04-08T01:53:21.595Z,0
2017-04-08T01:54:02.118Z,0
2017-04-08T01:54:42.567Z,0
2017-04-08T01:55:23.057Z,0
2017-04-08T01:56:03.548Z,0
2017-04-08T01:56:44.015Z,0
2017-04-08T01:57:24.534Z,0
2017-04-08T01:58:05.004Z,0
2017-04-08T01:58:45.556Z,0
2017-04-08T01:59:26.036Z,0
2017-04-08T02:00:06.504Z,0
2017-04-08T02:00:47.052Z,0
2017-04-08T02:01:27.458Z,0
2017-04-08T02:02:08.007Z,0
2017-04-08T02:02:48.547Z,0
2017-04-08T02:03:29.471Z,0
2017-04-08T02:04:10.283Z,0
2017-04-08T02:04:50.733Z,0
2017-04-08T02:05:31.268Z,0
2017-04-08T02:06:11.719Z,0
2017-04-08T02:06:52.261Z,0
2017-04-08T02:07:32.765Z,0
2017-04-08T02:08:13.320Z,0
2017-04-08T02:08:53.836Z,0
2017-04-08T02:09:34.535Z,0
2017-04-08T02:10:14.995Z,0
2017-04-08T02:10:55.486Z,0
2017-04-08T02:11:36.118Z,0
2017-04-08T02:12:16.659Z,0
2017-04-08T02:12:57.181Z,0
2017-04-08T02:13:37.694Z,0
2017-04-08T02:14:18.148Z,0
2017-04-08T02:14:58.692Z,0
2017-04-08T02:15:39.338Z,0
2017-04-08T02:16:19.728Z,0
2017-04-08T02:17:00.336Z,0
2017-04-08T02:17:40.816Z,0
2017-04-08T02:18:21.337Z,0
2017-04-08T02:19:01.905Z,0
2017-04-08T02:19:42.447Z,0
2017-04-08T02:20:22.967Z,0
2017-04-08T02:21:03.421Z,0
2017-04-08T02:21:43.919Z,0
2017-04-08T02:22:24.491Z,0
2017-04-08T02:23:05.185Z,0
2017-04-08T02:23:45.869Z,0
2017-04-08T02:24:26.604Z,0
2017-04-08T02:25:07.134Z,0
2017-04-08T02:25:47.718Z,0
2017-04-08T02:26:28.415Z,0
2017-04-08T02:27:08.984Z,0
2017-04-08T02:27:49.456Z,0
2017-04-08T02:28:29.981Z,0
2017-04-08T02:29:10.556Z,0
2017-04-08T02:29:51.243Z,0
2017-04-08T02:30:31.937Z,0
2017-04-08T02:31:12.331Z,0
2017-04-08T02:31:52.844Z,0
2017-04-08T02:32:33.374Z,0
2017-04-08T02:33:13.830Z,0
2017-04-08T02:33:54.337Z,0
2017-04-08T02:34:34.828Z,0
2017-04-08T02:35:15.295Z,0
2017-04-08T02:35:55.767Z,0
2017-04-08T02:36:36.243Z,0
2017-04-08T02:37:16.726Z,0
2017-04-08T02:37:57.205Z,0
2017-04-08T02:38:37.713Z,0
2017-04-08T02:39:18.219Z,0
2017-04-08T02:39:58.715Z,0
2017-04-08T02:40:39.204Z,0
2017-04-08T02:41:19.719Z,0
2017-04-08T02:42:00.186Z,0
2017-04-08T02:42:40.777Z,0
2017-04-08T02:43:21.233Z,0
2017-04-08T02:44:01.800Z,0
2017-04-08T02:44:42.222Z,0
2017-04-08T02:45:22.713Z,0
2017-04-08T02:46:03.176Z,0
2017-04-08T02:46:43.751Z,0
2017-04-08T02:47:24.221Z,0
2017-04-08T02:48:04.683Z,0
2017-04-08T02:48:45.172Z,0
2017-04-08T02:49:25.614Z,0
2017-04-08T02:50:06.091Z,0
2017-04-08T02:50:46.616Z,0
2017-04-08T02:51:27.081Z,0
2017-04-08T02:52:07.597Z,0
2017-04-08T02:52:48.089Z,0
2017-04-08T02:53:28.594Z,0
2017-04-08T02:54:09.121Z,0
2017-04-08T02:54:49.571Z,0
2017-04-08T02:55:30.093Z,0
2017-04-08T02:56:10.568Z,0
2017-04-08T02:56:51.086Z,0
2017-04-08T02:57:31.608Z,0
2017-04-08T02:58:12.081Z,0
2017-04-08T02:58:52.574Z,0
2017-04-08T02:59:33.097Z,0
2017-04-08T03:00:13.561Z,0
2017-04-08T03:00:54.075Z,0
2017-04-08T03:01:34.579Z,0
2017-04-08T03:02:15.088Z,0
2017-04-08T03:04:43.629Z,0
2017-04-08T03:05:24.137Z,0
2017-04-08T03:06:04.665Z,0
2017-04-08T03:06:45.139Z,0
2017-04-08T03:07:25.663Z,0
2017-04-08T03:08:06.171Z,0
2017-04-08T03:08:46.663Z,0
2017-04-08T03:09:27.213Z,0
2017-04-08T03:10:07.661Z,0
2017-04-08T03:10:48.158Z,0
2017-04-08T03:11:28.678Z,0
2017-04-08T03:12:09.141Z,0
2017-04-08T03:12:49.711Z,0
2017-04-08T03:13:30.139Z,0
2017-04-08T03:14:10.638Z,0
2017-04-08T03:14:51.097Z,0
2017-04-08T03:15:31.609Z,0
2017-04-08T03:16:12.311Z,0
2017-04-08T03:16:53.034Z,0
2017-04-08T03:17:33.587Z,0
2017-04-08T03:18:14.129Z,0
2017-04-08T03:18:54.591Z,0
2017-04-08T03:19:35.111Z,0
2017-04-08T03:20:15.586Z,0
2017-04-08T03:20:56.102Z,0
2017-04-08T03:21:36.609Z,0
2017-04-08T03:22:17.111Z,0
2017-04-08T03:22:57.639Z,0
2017-04-08T03:23:38.099Z,0
2017-04-08T03:24:18.601Z,0
2017-04-08T03:24:59.099Z,0
2017-04-08T03:25:39.593Z,0
2017-04-08T03:26:20.089Z,0
2017-04-08T03:27:00.559Z,0
2017-04-08T03:27:41.060Z,0
2017-04-08T03:28:21.541Z,0
2017-04-08T03:29:02.084Z,0
2017-04-08T03:29:42.539Z,0
2017-04-08T03:30:23.059Z,0
2017-04-08T03:31:03.590Z,0
2017-04-08T03:31:44.068Z,0
2017-04-08T03:32:24.537Z,0
2017-04-08T03:33:05.037Z,0
2017-04-08T03:33:45.516Z,0
2017-04-08T03:34:26.013Z,0
2017-04-08T03:35:06.522Z,0
2017-04-08T03:35:47.024Z,0
2017-04-08T03:36:27.562Z,0
2017-04-08T03:37:08.022Z,0
2017-04-08T03:37:48.548Z,0
2017-04-08T03:38:29.017Z,0
2017-04-08T03:39:09.497Z,0
2017-04-08T03:39:49.997Z,0
2017-04-08T03:40:30.530Z,0
2017-04-08T03:41:11.055Z,0
2017-04-08T03:41:51.545Z,0
2017-04-08T03:42:32.065Z,0
2017-04-08T03:43:12.519Z,0
2017-04-08T03:43:53.045Z,0
2017-04-08T03:44:33.502Z,0
2017-04-08T03:45:13.983Z,0
2017-04-08T03:45:54.511Z,0
2017-04-08T03:46:34.960Z,0
2017-04-08T03:47:15.441Z,0
2017-04-08T03:47:55.974Z,0
2017-04-08T03:48:36.431Z,0
2017-04-08T03:49:16.957Z,0
2017-04-08T03:49:57.484Z,0
2017-04-08T03:50:37.961Z,0
2017-04-08T03:51:18.460Z,0
2017-04-08T03:51:58.957Z,0
2017-04-08T03:52:39.473Z,0
2017-04-08T03:53:20.001Z,0
2017-04-08T03:54:00.499Z,0
2017-04-08T03:54:40.980Z,0
2017-04-08T03:55:21.493Z,0
2017-04-08T03:56:01.978Z,0
2017-04-08T03:56:42.479Z,0
2017-04-08T03:57:23.001Z,0
2017-04-08T03:58:03.457Z,0
2017-04-08T03:58:43.977Z,0
2017-04-08T03:59:24.446Z,0
2017-04-08T04:00:04.970Z,0
2017-04-08T04:00:45.443Z,0
2017-04-08T04:01:25.976Z,0
2017-04-08T04:02:06.457Z,0
2017-04-08T04:02:46.961Z,0
2017-04-08T04:03:27.452Z,0
2017-04-08T04:04:07.991Z,0
2017-04-08T04:04:48.438Z,0
2017-04-08T04:05:28.934Z,0
2017-04-08T04:06:09.400Z,0
2017-04-08T04:06:49.905Z,0
2017-04-08T04:07:30.412Z,0
2017-04-08T04:08:10.890Z,0
2017-04-08T04:08:51.425Z,0
2017-04-08T04:09:31.921Z,0
2017-04-08T04:10:12.420Z,0
2017-04-08T04:10:52.918Z,0
2017-04-08T04:11:33.394Z,0
2017-04-08T04:12:13.918Z,0
2017-04-08T04:12:54.392Z,0
2017-04-08T04:13:34.861Z,0
2017-04-08T04:14:15.369Z,0
2017-04-08T04:14:55.855Z,0
2017-04-08T04:15:36.320Z,0
2017-04-08T04:16:16.812Z,0
2017-04-08T04:16:57.317Z,0
2017-04-08T04:17:37.828Z,0
2017-04-08T04:18:18.337Z,0
2017-04-08T04:18:58.834Z,0
2017-04-08T04:19:39.297Z,0
2017-04-08T04:20:19.781Z,0
2017-04-08T04:21:00.293Z,0
2017-04-08T04:21:40.813Z,0
2017-04-08T04:22:21.317Z,0
2017-04-08T04:23:01.820Z,0
2017-04-08T04:23:42.302Z,0
2017-04-08T04:24:22.832Z,0
2017-04-08T04:25:03.300Z,4
2017-04-08T04:25:43.826Z,4
2017-04-08T04:26:24.312Z,4
2017-04-08T04:27:04.823Z,0
2017-04-08T04:27:45.293Z,0
2017-04-08T04:28:25.803Z,4
2017-04-08T04:29:06.294Z,4
2017-04-08T04:29:46.796Z,4
2017-04-08T04:30:27.289Z,4
2017-04-08T04:31:07.809Z,8
2017-04-08T04:31:48.284Z,4
2017-04-08T04:32:28.773Z,8
2017-04-08T04:33:09.260Z,8
2017-04-08T04:33:49.774Z,8
2017-04-08T04:34:30.257Z,12
2017-04-08T04:35:10.731Z,12
2017-04-08T04:35:51.257Z,12
2017-04-08T04:36:31.761Z,12
2017-04-08T04:37:12.255Z,16
2017-04-08T04:37:52.744Z,12
2017-04-08T04:38:33.260Z,16
2017-04-08T04:39:13.753Z,20
2017-04-08T04:39:54.256Z,20
2017-04-08T04:40:34.756Z,20
2017-04-08T04:41:15.254Z,28
2017-04-08T04:41:55.754Z,28
2017-04-08T04:42:36.267Z,32
2017-04-08T04:43:16.758Z,32
2017-04-08T04:43:57.260Z,36
2017-04-08T04:44:37.758Z,40
2017-04-08T04:45:18.261Z,44
2017-04-08T04:45:58.724Z,48
2017-04-08T04:46:39.234Z,48
2017-04-08T04:47:19.768Z,52
2017-04-08T04:48:00.204Z,56
2017-04-08T04:48:40.725Z,60
2017-04-08T04:49:21.209Z,64
2017-04-08T04:50:01.707Z,72
2017-04-08T04:50:42.205Z,72
2017-04-08T04:51:22.708Z,76
2017-04-08T04:52:03.202Z,84
2017-04-08T04:52:43.740Z,88
2017-04-08T04:53:24.216Z,92
2017-04-08T04:54:04.724Z,96
2017-04-08T04:54:45.207Z,104
2017-04-08T04:56:58.503Z,124
2017-04-08T04:57:39.029Z,132
2017-04-08T04:58:19.536Z,136
2017-04-08T04:59:00.034Z,144
2017-04-08T04:59:40.512Z,152
2017-04-08T05:00:21.036Z,160
2017-04-08T05:01:01.518Z,168
2017-04-08T05:01:42.015Z,176
2017-04-08T05:02:22.542Z,184
2017-04-08T05:03:02.992Z,192
2017-04-08T05:03:43.513Z,204
2017-04-08T05:04:24.003Z,212
2017-04-08T05:05:04.499Z,220
2017-04-08T05:05:44.992Z,228
2017-04-08T05:06:25.441Z,236
2017-04-08T05:07:05.961Z,244
2017-04-08T05:07:46.440Z,256
2017-04-08T05:08:26.959Z,268
2017-04-08T05:09:07.414Z,284
2017-04-08T05:09:47.909Z,296
2017-04-08T05:10:28.443Z,312
2017-04-08T05:11:08.922Z,324
2017-04-08T05:11:49.404Z,332
2017-04-08T05:12:29.860Z,344
2017-04-08T05:13:10.359Z,356
2017-04-08T05:13:50.878Z,372
2017-04-08T05:14:31.336Z,388
2017-04-08T05:15:11.866Z,404
2017-04-08T05:15:52.350Z,416
2017-04-08T05:16:32.822Z,432
2017-04-08T05:17:13.310Z,444
2017-04-08T05:17:53.831Z,460
2017-04-08T05:18:34.298Z,472
2017-04-08T05:19:14.803Z,492
2017-04-08T05:19:55.322Z,508
2017-04-08T05:20:35.807Z,524
2017-04-08T05:21:16.306Z,536
2017-04-08T05:21:56.807Z,552
2017-04-08T05:22:37.316Z,572
2017-04-08T05:23:17.805Z,588
2017-04-08T05:23:58.282Z,604
2017-04-08T05:24:38.782Z,620
2017-04-08T05:25:19.249Z,632
2017-04-08T05:25:59.738Z,652
2017-04-08T05:26:40.257Z,672
2017-04-08T05:27:20.767Z,692
2017-04-08T05:28:01.261Z,704
2017-04-08T05:28:41.802Z,724
2017-04-08T05:29:22.279Z,744
2017-04-08T05:30:02.744Z,760
2017-04-08T05:30:43.248Z,784
2017-04-08T05:31:23.764Z,800
2017-04-08T05:32:04.270Z,824
2017-04-08T05:32:44.744Z,848
2017-04-08T05:33:25.265Z,864
2017-04-08T05:34:05.760Z,880
2017-04-08T05:34:46.296Z,896
2017-04-08T05:35:26.752Z,908
2017-04-08T05:36:07.347Z,924
2017-04-08T05:36:47.839Z,940
2017-04-08T05:37:28.307Z,952
2017-04-08T05:38:08.810Z,968
2017-04-08T05:38:49.287Z,980
2017-04-08T05:39:29.766Z,992
2017-04-08T05:40:10.268Z,1008
2017-04-08T05:40:50.754Z,1028
2017-04-08T05:41:31.249Z,1036
2017-04-08T05:42:11.748Z,1052
2017-04-08T05:42:52.270Z,1060
2017-04-08T05:43:32.768Z,1072
2017-04-08T05:44:13.269Z,1084
2017-04-08T05:44:53.770Z,1096
2017-04-08T05:45:34.267Z,1112
2017-04-08T05:46:14.757Z,1120
2017-04-08T05:46:55.274Z,1136
2017-04-08T05:47:35.755Z,1156
2017-04-08T05:48:16.318Z,1168
2017-04-08T05:48:56.737Z,1180
2017-04-08T05:49:37.242Z,1192
2017-04-08T05:50:17.731Z,1208
2017-04-08T05:50:58.263Z,1212
2017-04-08T05:51:38.734Z,1224
2017-04-08T05:52:19.210Z,1232
2017-04-08T05:52:59.694Z,1244
2017-04-08T05:53:40.199Z,1260
2017-04-08T05:54:20.717Z,1268
2017-04-08T05:55:01.179Z,1284
2017-04-08T05:55:41.692Z,1296
2017-04-08T05:56:22.175Z,1308
2017-04-08T05:57:02.663Z,1320
2017-04-08T05:57:43.163Z,1340
2017-04-08T05:58:23.651Z,1352
2017-04-08T05:59:04.143Z,1364
2017-04-08T05:59:44.673Z,1376
2017-04-08T06:00:25.141Z,1384
2017-04-08T06:01:06.082Z,1396
2017-04-08T06:01:46.566Z,1400
2017-04-08T06:02:27.059Z,1412
2017-04-08T06:03:07.572Z,1420
2017-04-08T06:03:48.058Z,1428
2017-04-08T06:04:28.570Z,1444
2017-04-08T06:05:09.057Z,1448
2017-04-08T06:05:49.568Z,1464
2017-04-08T06:06:30.087Z,1484
2017-04-08T06:07:10.577Z,1488
2017-04-08T06:07:51.101Z,1500
2017-04-08T06:08:31.592Z,1516
2017-04-08T06:09:12.122Z,1528
2017-04-08T06:09:52.622Z,1536
2017-04-08T06:10:33.119Z,1540
2017-04-08T06:11:13.619Z,1552
2017-04-08T06:11:54.141Z,1572
2017-04-08T06:12:38.664Z,1580
2017-04-08T06:13:15.411Z,1596
2017-04-08T06:13:55.916Z,1604
2017-04-08T06:14:36.442Z,1620
2017-04-08T06:15:16.903Z,1624
2017-04-08T06:15:57.414Z,1640
2017-04-08T06:16:37.873Z,1660
2017-04-08T06:17:18.476Z,1676
2017-04-08T06:17:58.984Z,1688
2017-04-08T06:18:39.457Z,1700
2017-04-08T06:19:19.954Z,1716
2017-04-08T06:20:00.488Z,1724
2017-04-08T06:20:41.348Z,1744
2017-04-08T06:21:21.552Z,1760
2017-04-08T06:22:02.107Z,1768
2017-04-08T06:22:42.571Z,1768
2017-04-08T06:23:23.086Z,1772
2017-04-08T06:24:03.560Z,1772
2017-04-08T06:24:44.048Z,1776
2017-04-08T06:25:24.888Z,1780
2017-04-08T06:26:05.299Z,1788
2017-04-08T06:28:22.238Z,1792
2017-04-08T06:29:02.733Z,1800
2017-04-08T06:29:43.312Z,1804
2017-04-08T06:30:23.779Z,1816
2017-04-08T06:31:05.158Z,1828
2017-04-08T06:31:45.655Z,1824
2017-04-08T06:32:26.182Z,1824
2017-04-08T06:33:07.211Z,1816
2017-04-08T06:33:47.729Z,1812
2017-04-08T06:34:28.289Z,1812
2017-04-08T06:35:08.763Z,1812
2017-04-08T06:35:49.487Z,1812
2017-04-08T06:36:31.198Z,1820
2017-04-08T06:37:14.823Z,1836
2017-04-08T06:37:55.417Z,1844
2017-04-08T06:38:36.169Z,1852
2017-04-08T06:39:16.535Z,1844
2017-04-08T06:39:57.061Z,1840
2017-04-08T06:40:37.566Z,1840
2017-04-08T06:41:18.066Z,1840
2017-04-08T06:41:58.495Z,1844
2017-04-08T06:42:39.210Z,1840
2017-04-08T06:43:19.708Z,1840
2017-04-08T06:44:00.267Z,1836
2017-04-08T06:44:41.665Z,1832
2017-04-08T06:45:22.448Z,1840
2017-04-08T06:46:02.976Z,1836
2017-04-08T06:46:43.506Z,1836
2017-04-08T06:47:24.193Z,1844
2017-04-08T06:48:04.806Z,1848
2017-04-08T06:48:45.223Z,1848
2017-04-08T06:49:25.765Z,1852
2017-04-08T06:50:06.614Z,1860
2017-04-08T06:50:47.948Z,1868
2017-04-08T06:51:28.470Z,1868
2017-04-08T06:52:08.958Z,1868
2017-04-08T06:52:49.431Z,1872
2017-04-08T06:53:29.915Z,1876
2017-04-08T06:54:10.406Z,1880
2017-04-08T06:54:50.926Z,1880
2017-04-08T06:55:31.425Z,1888
2017-04-08T06:56:11.900Z,1900
2017-04-08T06:56:52.344Z,1920
2017-04-08T06:57:32.868Z,1948
2017-04-08T06:58:13.349Z,1984
2017-04-08T06:58:53.844Z,2044
2017-04-08T06:59:34.328Z,2108
2017-04-08T07:00:14.851Z,2192
2017-04-08T07:00:55.371Z,2272
2017-04-08T07:01:36.963Z,2332
2017-04-08T07:02:16.732Z,2392
2017-04-08T07:02:57.247Z,2440
2017-04-08T07:03:37.826Z,2464
2017-04-08T07:04:18.316Z,2472
2017-04-08T07:04:58.825Z,2464
2017-04-08T07:05:39.288Z,2452
2017-04-08T07:06:19.789Z,2428
2017-04-08T07:07:00.315Z,2416
2017-04-08T07:07:40.827Z,2428
2017-04-08T07:08:21.311Z,2448
2017-04-08T07:09:01.867Z,2480
2017-04-08T07:09:42.295Z,2512
2017-04-08T07:10:22.808Z,2544
2017-04-08T07:11:03.270Z,2572
2017-04-08T07:11:43.726Z,2572
2017-04-08T07:12:24.241Z,2580
2017-04-08T07:13:04.735Z,2580
2017-04-08T07:13:45.214Z,2580
2017-04-08T07:14:25.714Z,2580
2017-04-08T07:15:06.201Z,2580
2017-04-08T07:15:46.710Z,2580
2017-04-08T07:16:27.237Z,2576
2017-04-08T07:17:07.722Z,2588
2017-04-08T07:17:48.224Z,2592
2017-04-08T07:18:28.761Z,2596
2017-04-08T07:19:09.284Z,2600
2017-04-08T07:19:49.756Z,2612
2017-04-08T07:20:30.262Z,2608
2017-04-08T07:21:10.746Z,2604
2017-04-08T07:21:51.292Z,2608
2017-04-08T07:24:09.367Z,2592
2017-04-08T07:24:49.841Z,2584
2017-04-08T07:25:30.329Z,2568
2017-04-08T07:26:10.850Z,2568
2017-04-08T07:26:51.339Z,2560
2017-04-08T07:27:32.061Z,2560
2017-04-08T07:28:12.358Z,2556
2017-04-08T07:28:52.877Z,2552
2017-04-08T07:29:33.369Z,2544
2017-04-08T07:30:13.847Z,2540
2017-04-08T07:30:54.335Z,2524
2017-04-08T07:31:34.860Z,2512
2017-04-08T07:32:15.392Z,2500
2017-04-08T07:32:55.881Z,2484
2017-04-08T07:33:36.402Z,2472
2017-04-08T07:34:16.880Z,2468
2017-04-08T07:34:57.391Z,2464
2017-04-08T07:35:37.911Z,2452
2017-04-08T07:36:18.413Z,2448
2017-04-08T07:36:58.931Z,2432
2017-04-08T07:37:39.408Z,2428
2017-04-08T07:38:19.913Z,2420
2017-04-08T07:39:00.450Z,2408
2017-04-08T07:39:41.010Z,2396
2017-04-08T07:40:21.498Z,2392
2017-04-08T07:41:01.983Z,2372
2017-04-08T07:41:42.534Z,2364
2017-04-08T07:42:22.971Z,2348
2017-04-08T07:43:04.374Z,2336
2017-04-08T07:43:45.292Z,2332
2017-04-08T07:44:25.940Z,2316
2017-04-08T07:45:06.417Z,2304
2017-04-08T07:45:46.894Z,2296
2017-04-08T07:46:27.394Z,2280
2017-04-08T07:47:07.904Z,2272
2017-04-08T07:47:48.380Z,2264
2017-04-08T07:48:28.945Z,2256
2017-04-08T07:49:09.420Z,2232
2017-04-08T07:49:49.959Z,2200
2017-04-08T07:50:30.456Z,2164
2017-04-08T07:51:10.992Z,2108
2017-04-08T07:51:51.440Z,2060
2017-04-08T07:52:31.946Z,2024
2017-04-08T07:53:12.412Z,2008
2017-04-08T07:53:52.933Z,2000
2017-04-08T07:54:33.429Z,2004
2017-04-08T07:55:13.949Z,1992
2017-04-08T07:55:54.500Z,1988
2017-04-08T07:56:35.147Z,2000
2017-04-08T07:57:15.648Z,1996
2017-04-08T07:57:56.159Z,1984
2017-04-08T07:58:36.685Z,1972
2017-04-08T07:59:17.214Z,1972
2017-04-08T07:59:57.710Z,1968
2017-04-08T08:00:38.208Z,1956
2017-04-08T08:01:18.695Z,1948
2017-04-08T08:01:59.197Z,1932
2017-04-08T08:02:39.721Z,1928
2017-04-08T08:03:20.222Z,1916
2017-04-08T08:04:00.677Z,1916
2017-04-08T08:04:41.196Z,1912
2017-04-08T08:05:21.696Z,1904
2017-04-08T08:06:02.209Z,1888
2017-04-08T08:06:42.642Z,1888
2017-04-08T08:07:23.157Z,1892
2017-04-08T08:08:03.630Z,1884
2017-04-08T08:08:44.154Z,1892
2017-04-08T08:09:24.681Z,1884
2017-04-08T08:10:05.182Z,1880
2017-04-08T08:10:45.737Z,1880
2017-04-08T08:11:26.218Z,1884
2017-04-08T08:12:06.712Z,1860
2017-04-08T08:12:47.212Z,1852
2017-04-08T08:13:27.699Z,1860
2017-04-08T08:14:08.255Z,1860
2017-04-08T08:14:48.722Z,1852
2017-04-08T08:15:29.245Z,1856
2017-04-08T08:16:09.700Z,1844
2017-04-08T08:16:50.236Z,1844
2017-04-08T08:17:30.673Z,1836
2017-04-08T08:18:11.231Z,1856
2017-04-08T08:18:51.701Z,1832
2017-04-08T08:19:32.267Z,1836
2017-04-08T08:20:12.742Z,1828
2017-04-08T08:20:53.240Z,1824
2017-04-08T08:21:33.742Z,1820
2017-04-08T08:22:14.314Z,1816
2017-04-08T08:22:54.742Z,1812
2017-04-08T08:23:35.230Z,1808
2017-04-08T08:24:15.689Z,1808
2017-04-08T08:24:56.242Z,1808
2017-04-08T08:25:36.741Z,1800
2017-04-08T08:26:17.209Z,1800
2017-04-08T08:26:57.743Z,1800
2017-04-08T08:27:38.224Z,1792
2017-04-08T08:28:18.766Z,1804
2017-04-08T08:28:59.293Z,1800
2017-04-08T08:29:39.704Z,1788
2017-04-08T08:30:20.248Z,1792
2017-04-08T08:31:00.753Z,1796
2017-04-08T08:31:41.244Z,1792
2017-04-08T08:32:21.764Z,1788
2017-04-08T08:33:02.231Z,1788
2017-04-08T08:33:42.812Z,1780
2017-04-08T08:34:23.288Z,1780
2017-04-08T08:35:03.764Z,1780
2017-04-08T08:35:44.286Z,1772
2017-04-08T08:36:24.705Z,1776
2017-04-08T08:37:05.308Z,1772
2017-04-08T08:37:45.804Z,1772
2017-04-08T08:38:26.262Z,1772
2017-04-08T08:39:07.005Z,1768
2017-04-08T08:39:47.490Z,1772
2017-04-08T08:40:27.973Z,1772
2017-04-08T08:41:08.514Z,1772
2017-04-08T08:41:48.988Z,1772
2017-04-08T08:42:29.483Z,1780
2017-04-08T08:43:09.964Z,1780
2017-04-08T08:43:50.489Z,1772
2017-04-08T08:44:30.962Z,1772
2017-04-08T08:45:11.463Z,1772
2017-04-08T08:45:51.909Z,1772
2017-04-08T08:46:32.396Z,1764
2017-04-08T08:47:12.892Z,1768
2017-04-08T08:47:53.390Z,1768
2017-04-08T08:48:33.845Z,1768
2017-04-08T08:49:14.356Z,1772
2017-04-08T08:49:54.849Z,1772
2017-04-08T08:50:35.333Z,1772
2017-04-08T08:51:15.858Z,1768
2017-04-08T08:51:56.317Z,1768
2017-04-08T08:52:36.857Z,1768
2017-04-08T08:53:17.365Z,1768
2017-04-08T08:53:57.802Z,1768
2017-04-08T08:54:38.281Z,1764
2017-04-08T08:55:18.775Z,1768
2017-04-08T08:55:59.322Z,1764
2017-04-08T08:56:39.752Z,1760
2017-04-08T08:57:20.341Z,1760
2017-04-08T08:58:00.761Z,1760
2017-04-08T08:58:41.255Z,1764
2017-04-08T08:59:21.891Z,1760
2017-04-08T09:00:02.377Z,1768
2017-04-08T09:00:42.920Z,1764
2017-04-08T09:01:23.389Z,1764
2017-04-08T09:02:03.837Z,1760
2017-04-08T09:02:44.323Z,1768
2017-04-08T09:03:24.825Z,1756
2017-04-08T09:04:05.322Z,1752
2017-04-08T09:04:45.827Z,1752
2017-04-08T09:05:26.280Z,1748
2017-04-08T09:06:06.799Z,1744
2017-04-08T09:06:47.275Z,1744
2017-04-08T09:07:27.730Z,1736
2017-04-08T09:08:08.240Z,1724
2017-04-08T09:08:48.730Z,1716
2017-04-08T09:09:29.217Z,1704
2017-04-08T09:10:09.708Z,1696
2017-04-08T09:10:50.190Z,1688
2017-04-08T09:11:30.798Z,1684
2017-04-08T09:12:11.302Z,1664
2017-04-08T09:12:51.800Z,1668
2017-04-08T09:13:32.278Z,1656
2017-04-08T09:14:12.766Z,1644
2017-04-08T09:14:53.268Z,1644
2017-04-08T09:15:33.741Z,1632
2017-04-08T09:16:14.297Z,1632
2017-04-08T09:16:54.754Z,1620
2017-04-08T09:17:35.273Z,1612
2017-04-08T09:18:15.771Z,1604
2017-04-08T09:18:56.286Z,1596
2017-04-08T09:19:36.733Z,1592
2017-04-08T09:20:17.214Z,1592
2017-04-08T09:20:57.728Z,1584
2017-04-08T09:21:38.210Z,1580
2017-04-08T09:22:18.740Z,1572
2017-04-08T09:22:59.235Z,1568
2017-04-08T09:23:39.711Z,1572
2017-04-08T09:24:20.208Z,1564
2017-04-08T09:25:00.719Z,1568
2017-04-08T09:25:41.229Z,1564
2017-04-08T09:26:21.733Z,1568
2017-04-08T09:27:02.200Z,1552
2017-04-08T09:27:42.743Z,1576
2017-04-08T09:28:23.309Z,1552
2017-04-08T09:29:03.779Z,1556
2017-04-08T09:29:44.277Z,1552
2017-04-08T09:30:24.750Z,1544
2017-04-08T09:31:05.265Z,1544
2017-04-08T09:31:45.751Z,1532
2017-04-08T09:32:26.259Z,1536
2017-04-08T09:33:06.754Z,1532
2017-04-08T09:33:47.266Z,1524
2017-04-08T09:34:27.759Z,1520
2017-04-08T09:35:08.278Z,1524
2017-04-08T09:35:48.824Z,1512